Dornsife, PA (17823)

11:20 PM EST del 25 Gennaio 2015 (GMT -0500)
TONY | Change Station
CLOSE
Current Station
Stazione meteo personale
Location: Trevorton, PA
Altitudine: 820 ft
Stazioni meteo nelle vicinanze
Avvisi attivi: Winter Weather Advisory

Alt. 820 ft 40.78 °N, 76.68 °W | Updated 1 minute ago

Neve
Neve
24.7 °F
Sembra 18 °F
N
6.0
Vento Variabile Vento da NNE
Gusts 8.0 mph

Oggi
Massima -- | Minima -- °F
--% Possibilità di precip.
Ieri
Massima -- | Minima -- °F
Precip. -- in
7:23 AM 5:15 PM
Luna crescente, 39% visible
Pressione 29.96 in
Visibilità 1.8 miglia
Nuvole Coperto 2800 ft
Raffreddamento del vento 18 °F
Punto di rugiada 22 °F
Umidità 90%
Piovosità 0.09 in
Spessore del manto nevoso Non disponibile.
Raggi UV 0 fuori da 12
Polline .10 fuori da 12
Qualità dell'aria Non disponibile.
Flu Activity Non disponibile.
SPECI KSEG 260406Z AUTO 05010KT 1 3/4SM -SN OVC028 M03/M06 A2996 RMK AO2 P0000 T10281056

More Conditions Fewer Conditions

Pressione 29.96 in
Visibilità 1.8 miglia
Nuvole Coperto 2800 ft
Raffreddamento del vento 18 °F
Punto di rugiada 22 °F
Umidità 90%
Piovosità 0.09 in
Spessore del manto nevoso Non disponibile.
Raggi UV 0 fuori da 12
Polline .10 fuori da 12
Qualità dell'aria Non disponibile.
Flu Activity Non disponibile.
SPECI KSEG 260406Z AUTO 05010KT 1 3/4SM -SN OVC028 M03/M06 A2996 RMK AO2 P0000 T10281056

More Conditions Fewer Conditions

10-Day Weather Forecast

Almanac

Astronomia

Jan. 25, 2015 Alba Tramonto
Ora attuale
Crepuscolo civile
Crepuscolo nautico
Crepuscolo astronomico
Luna
Estensione della luce visibile
Lunghezza del giorno
Tomorrow will be .
, % of the Moon is Illuminated

Gli estremi di oggi

State Highs State Lows

Community

WunderPhotos

Upload Photos

1,790,135 foto caricate!

WunderBlogs® & News

Nearby

Qualità dell'aria

  Qualità dell'aria Indice AQ Inquinante
Not available.

Profondità neve

Stazione Profondità Altitudine

Attività sismica

Città  Distanza Mag. Data & Ora
Minimo Magnitudo Mostrato è 2.5.

Temperature delle acque costiere

Località Temperatura

Stazioni meteo nelle vicinanze